createdAt,value
2022-09-23T00:01:19.636Z,9.60
2022-09-23T00:03:47.282Z,9.60
2022-09-23T00:06:20.927Z,9.50
2022-09-23T00:08:51.633Z,9.60
2022-09-23T00:11:21.574Z,9.60
2022-09-23T00:13:51.192Z,9.60
2022-09-23T00:16:22.158Z,9.50
2022-09-23T00:18:53.407Z,9.50
2022-09-23T00:21:21.861Z,9.50
2022-09-23T00:23:49.285Z,9.50
2022-09-23T00:26:19.058Z,9.70
2022-09-23T00:28:46.638Z,9.50
2022-09-23T00:31:22.280Z,9.50
2022-09-23T00:34:00.743Z,9.40
2022-09-23T00:36:29.159Z,9.40
2022-09-23T00:38:56.820Z,9.40
2022-09-23T00:41:26.949Z,9.30
2022-09-23T00:43:57.136Z,9.30
2022-09-23T00:46:43.968Z,9.30
2022-09-23T00:49:38.438Z,9.30
2022-09-23T00:52:23.994Z,9.30
2022-09-23T00:54:57.076Z,9.30
2022-09-23T00:57:27.229Z,9.30
2022-09-23T00:59:55.180Z,9.30
2022-09-23T01:02:22.219Z,9.30
2022-09-23T01:04:51.535Z,9.50
2022-09-23T01:07:28.687Z,9.30
2022-09-23T01:10:03.503Z,9.30
2022-09-23T01:12:55.847Z,9.30
2022-09-23T01:15:44.959Z,9.40
2022-09-23T01:18:21.248Z,9.30
2022-09-23T01:21:07.358Z,9.30
2022-09-23T01:23:37.378Z,9.30
2022-09-23T01:26:29.173Z,9.20
2022-09-23T01:28:55.962Z,9.20
2022-09-23T01:31:40.700Z,9.20
2022-09-23T01:34:20.439Z,9.20
2022-09-23T01:36:58.925Z,9.20
2022-09-23T01:39:45.086Z,9.20
2022-09-23T01:42:30.032Z,9.20
2022-09-23T01:45:09.853Z,9.30
2022-09-23T01:47:44.518Z,9.20
2022-09-23T01:50:36.735Z,9.20
2022-09-23T01:53:15.324Z,9.30
2022-09-23T01:55:47.792Z,9.40
2022-09-23T01:58:45.285Z,9.10
2022-09-23T02:01:19.536Z,9.20
2022-09-23T02:04:19.304Z,9.20
2022-09-23T02:06:56.360Z,9.20
2022-09-23T02:09:28.507Z,9.20
2022-09-23T02:12:05.738Z,9.10
2022-09-23T02:15:05.047Z,9.10
2022-09-23T02:17:42.670Z,9.20
2022-09-23T02:20:58.223Z,9.10
2022-09-23T02:23:37.306Z,9.30
2022-09-23T02:26:23.024Z,9.10
2022-09-23T02:29:10.696Z,9.10
2022-09-23T02:31:43.367Z,9.20
2022-09-23T02:34:26.192Z,9.10
2022-09-23T02:37:39.500Z,9.10
2022-09-23T02:40:25.381Z,9.10
2022-09-23T02:43:07.584Z,9.10
2022-09-23T02:45:35.807Z,9.10
2022-09-23T02:48:25.549Z,9.10
2022-09-23T02:50:53.476Z,9.10
2022-09-23T02:53:22.697Z,9.10
2022-09-23T02:55:52.471Z,9.10
2022-09-23T02:58:19.544Z,9.10
2022-09-23T03:01:08.617Z,9.00
2022-09-23T03:03:53.850Z,9.00
2022-09-23T03:06:52.282Z,9.00
2022-09-23T03:09:35.871Z,9.00
2022-09-23T03:12:21.634Z,9.10
2022-09-23T03:15:18.578Z,9.10
2022-09-23T03:18:07.412Z,9.00
2022-09-23T03:20:37.770Z,9.00
2022-09-23T03:23:09.006Z,9.00
2022-09-23T03:25:38.988Z,9.00
2022-09-23T03:28:08.501Z,9.20
2022-09-23T03:30:37.856Z,9.00
2022-09-23T03:33:09.276Z,9.00
2022-09-23T03:36:01.832Z,9.00
2022-09-23T03:38:34.196Z,9.00
2022-09-23T03:41:06.663Z,9.00
2022-09-23T03:43:38.588Z,9.00
2022-09-23T03:46:08.872Z,9.00
2022-09-23T03:48:36.057Z,9.10
2022-09-23T03:51:19.664Z,9.10
2022-09-23T03:53:46.591Z,9.00
2022-09-23T03:56:13.443Z,9.00
2022-09-23T03:58:41.431Z,9.00
2022-09-23T04:01:08.395Z,9.00
2022-09-23T04:03:35.444Z,9.00
2022-09-23T04:06:02.295Z,9.00
2022-09-23T04:08:29.214Z,9.20
2022-09-23T04:11:01.627Z,9.10
2022-09-23T04:13:29.395Z,9.20
2022-09-23T04:15:56.433Z,9.20
2022-09-23T04:18:23.472Z,9.00
2022-09-23T04:20:50.316Z,9.10
2022-09-23T04:23:17.252Z,9.10
2022-09-23T04:25:48.538Z,9.10
2022-09-23T04:28:15.467Z,9.00
2022-09-23T04:30:43.876Z,9.00
2022-09-23T04:33:11.778Z,9.00
2022-09-23T04:35:40.282Z,9.00
2022-09-23T04:38:07.331Z,9.00
2022-09-23T04:40:35.513Z,9.00
2022-09-23T04:43:02.678Z,9.00
2022-09-23T04:45:30.589Z,9.00
2022-09-23T04:47:58.496Z,8.80
2022-09-23T04:50:26.530Z,8.90
2022-09-23T04:52:56.001Z,8.80
2022-09-23T04:55:23.267Z,8.90
2022-09-23T04:57:50.185Z,8.90
2022-09-23T05:00:17.346Z,8.90
2022-09-23T05:02:48.897Z,8.90
2022-09-23T05:05:21.166Z,8.90
2022-09-23T05:07:48.683Z,9.00
2022-09-23T05:10:16.439Z,9.00
2022-09-23T05:12:43.618Z,8.90
2022-09-23T05:15:10.574Z,9.10
2022-09-23T05:17:37.484Z,8.90
2022-09-23T05:20:05.330Z,9.00
2022-09-23T05:22:32.666Z,8.90
2022-09-23T05:25:01.649Z,8.70
2022-09-23T05:27:28.814Z,8.70
2022-09-23T05:29:55.682Z,8.80
2022-09-23T05:32:22.775Z,8.70
2022-09-23T05:34:49.703Z,8.90
2022-09-23T05:37:16.677Z,8.90
2022-09-23T05:39:43.550Z,8.80
2022-09-23T05:42:12.629Z,8.90
2022-09-23T05:44:39.669Z,8.90
2022-09-23T05:47:06.721Z,8.90
2022-09-23T05:49:58.034Z,8.80
2022-09-23T05:52:20.570Z,8.80
2022-09-23T05:54:47.494Z,8.80
2022-09-23T05:57:14.598Z,8.80
2022-09-23T05:59:42.492Z,8.80
2022-09-23T06:02:09.504Z,8.80
2022-09-23T06:04:36.524Z,8.70
2022-09-23T06:07:03.854Z,8.80
2022-09-23T06:09:35.566Z,8.80
2022-09-23T06:12:04.637Z,8.70
2022-09-23T06:14:31.500Z,8.70
2022-09-23T06:16:58.342Z,8.70
2022-09-23T06:19:25.209Z,8.80
2022-09-23T06:21:52.127Z,8.90
2022-09-23T06:24:22.115Z,8.90
2022-09-23T06:26:50.870Z,9.00
2022-09-23T06:29:18.437Z,9.00
2022-09-23T06:31:45.537Z,8.90
2022-09-23T06:34:14.548Z,9.00
2022-09-23T06:36:46.152Z,9.10
2022-09-23T06:39:16.733Z,9.00
2022-09-23T06:41:44.750Z,9.10
2022-09-23T06:44:15.302Z,9.10
2022-09-23T06:46:42.592Z,9.10
2022-09-23T06:49:09.726Z,9.10
2022-09-23T06:51:36.829Z,9.30
2022-09-23T06:54:03.893Z,9.30
2022-09-23T06:56:34.709Z,9.40
2022-09-23T06:59:04.951Z,9.60
2022-09-23T07:01:31.942Z,9.50
2022-09-23T07:03:59.847Z,9.60
2022-09-23T07:06:27.091Z,9.70
2022-09-23T07:08:53.933Z,9.80
2022-09-23T07:11:22.655Z,9.70
2022-09-23T07:13:49.802Z,9.80
2022-09-23T07:16:16.921Z,9.80
2022-09-23T07:18:45.142Z,10.00
2022-09-23T07:21:15.240Z,9.90
2022-09-23T07:23:43.298Z,10.10
2022-09-23T07:26:10.648Z,10.00
2022-09-23T07:28:38.374Z,10.00
2022-09-23T07:31:11.082Z,10.10
2022-09-23T07:33:40.024Z,10.10
2022-09-23T07:36:08.865Z,10.20
2022-09-23T07:38:36.391Z,10.30
2022-09-23T07:41:09.511Z,10.30
2022-09-23T07:43:37.232Z,10.30
2022-09-23T07:46:10.276Z,10.40
2022-09-23T07:48:38.777Z,10.50
2022-09-23T07:51:11.242Z,10.60
2022-09-23T07:53:38.201Z,10.60
2022-09-23T07:56:06.738Z,10.70
2022-09-23T07:58:34.940Z,10.70
2022-09-23T08:01:10.358Z,10.80
2022-09-23T08:03:38.205Z,10.90
2022-09-23T08:06:13.109Z,10.80
2022-09-23T08:08:43.785Z,10.90
2022-09-23T08:11:13.405Z,11.10
2022-09-23T08:13:40.873Z,11.10
2022-09-23T08:16:07.875Z,11.20
2022-09-23T08:18:34.840Z,11.40
2022-09-23T08:21:01.818Z,11.30
2022-09-23T08:23:33.439Z,11.40
2022-09-23T08:26:03.048Z,11.40
2022-09-23T08:28:30.342Z,11.70
2022-09-23T08:30:57.298Z,11.70
2022-09-23T08:33:24.908Z,11.70
2022-09-23T08:35:52.785Z,11.70
2022-09-23T08:38:20.527Z,11.80
2022-09-23T08:40:50.082Z,11.90
2022-09-23T08:43:29.452Z,12.00
2022-09-23T08:46:03.877Z,12.00
2022-09-23T08:48:42.383Z,12.10
2022-09-23T08:51:16.009Z,12.00
2022-09-23T08:53:45.663Z,12.10
2022-09-23T08:56:16.848Z,12.20
2022-09-23T08:59:11.921Z,12.20
2022-09-23T09:01:44.035Z,12.40
2022-09-23T09:04:25.874Z,12.30
2022-09-23T09:07:07.622Z,12.60
2022-09-23T09:09:46.829Z,12.50
2022-09-23T09:12:26.834Z,12.70
2022-09-23T09:15:07.661Z,12.70
2022-09-23T09:17:59.421Z,12.70
2022-09-23T09:21:14.359Z,12.80
2022-09-23T09:23:46.203Z,13.00
2022-09-23T09:26:23.078Z,12.80
2022-09-23T09:29:35.500Z,13.00
2022-09-23T09:32:24.645Z,12.90
2022-09-23T09:34:58.212Z,13.00
2022-09-23T09:37:44.664Z,13.00
2022-09-23T09:40:12.338Z,13.10
2022-09-23T09:42:46.644Z,13.10
2022-09-23T09:45:57.836Z,13.10
2022-09-23T09:48:50.278Z,13.30
2022-09-23T09:51:22.157Z,13.30
2022-09-23T09:53:52.024Z,13.30
2022-09-23T09:56:31.112Z,13.30
2022-09-23T09:59:10.789Z,13.40
2022-09-23T10:01:38.127Z,13.40
2022-09-23T10:04:20.108Z,13.60
2022-09-23T10:07:07.185Z,13.70
2022-09-23T10:09:37.074Z,13.70
2022-09-23T10:12:19.217Z,13.60
2022-09-23T10:14:51.879Z,13.70
2022-09-23T10:17:27.887Z,13.70
2022-09-23T10:20:00.852Z,13.70
2022-09-23T10:22:39.840Z,13.60
2022-09-23T10:25:26.723Z,13.70
2022-09-23T10:27:53.931Z,13.80
2022-09-23T10:30:27.689Z,13.80
2022-09-23T10:32:57.053Z,13.80
2022-09-23T10:35:25.580Z,13.90
2022-09-23T10:37:56.437Z,13.70
2022-09-23T10:40:59.413Z,14.00
2022-09-23T10:44:06.938Z,13.90
2022-09-23T10:46:42.088Z,13.90
2022-09-23T10:49:24.313Z,13.90
2022-09-23T10:52:14.208Z,13.90
2022-09-23T10:55:11.948Z,14.00
2022-09-23T10:57:44.914Z,14.00
2022-09-23T11:01:06.359Z,14.10
2022-09-23T11:04:01.441Z,14.30
2022-09-23T11:07:07.279Z,14.20
2022-09-23T11:09:45.460Z,14.10
2022-09-23T11:12:24.665Z,14.10
2022-09-23T11:15:09.449Z,14.30
2022-09-23T11:17:48.422Z,14.50
2022-09-23T11:20:24.678Z,14.30
2022-09-23T11:22:53.275Z,14.30
2022-09-23T11:25:24.013Z,14.40
2022-09-23T11:28:21.592Z,14.40
2022-09-23T11:31:09.911Z,14.50
2022-09-23T11:33:55.130Z,14.60
2022-09-23T11:36:36.946Z,14.50
2022-09-23T11:39:28.047Z,14.50
2022-09-23T11:41:59.267Z,14.70
2022-09-23T11:44:48.537Z,14.90
2022-09-23T11:47:22.408Z,14.90
2022-09-23T11:50:06.811Z,14.80
2022-09-23T11:52:43.825Z,14.80
2022-09-23T11:56:03.844Z,14.90
2022-09-23T12:01:37.874Z,15.00
2022-09-23T12:04:31.272Z,15.00
2022-09-23T12:07:06.000Z,15.30
2022-09-23T12:09:57.383Z,15.50
2022-09-23T12:12:39.700Z,15.30
2022-09-23T12:15:13.280Z,15.40
2022-09-23T12:17:54.511Z,15.50
2022-09-23T12:20:40.685Z,15.40
2022-09-23T12:23:33.367Z,15.70
2022-09-23T12:26:07.823Z,15.80
2022-09-23T12:28:44.683Z,15.80
2022-09-23T12:31:18.165Z,15.90
2022-09-23T12:33:54.016Z,15.80
2022-09-23T12:36:35.461Z,15.80
2022-09-23T12:39:17.803Z,15.70
2022-09-23T12:41:49.303Z,15.80
2022-09-23T12:44:31.687Z,15.70
2022-09-23T12:47:21.144Z,15.70
2022-09-23T12:49:50.846Z,15.90
2022-09-23T12:52:17.837Z,16.00
2022-09-23T12:54:49.810Z,15.90
2022-09-23T12:57:35.020Z,15.90
2022-09-23T13:00:13.816Z,15.90
2022-09-23T13:03:07.667Z,15.90
2022-09-23T13:06:10.173Z,15.90
2022-09-23T13:08:42.543Z,15.90
2022-09-23T13:11:25.861Z,15.90
2022-09-23T13:13:57.701Z,15.70
2022-09-23T13:16:43.621Z,15.70
2022-09-23T13:19:25.827Z,15.60
2022-09-23T13:22:07.812Z,15.60
2022-09-23T13:24:46.516Z,15.50
2022-09-23T13:27:18.561Z,15.60
2022-09-23T13:29:50.189Z,15.70
2022-09-23T13:32:21.142Z,15.70
2022-09-23T13:35:16.071Z,15.60
2022-09-23T13:37:47.805Z,15.60
2022-09-23T13:40:27.864Z,15.60
2022-09-23T13:42:59.547Z,15.80
2022-09-23T13:45:27.969Z,15.80
2022-09-23T13:48:11.308Z,16.00
2022-09-23T13:50:42.968Z,16.00
2022-09-23T13:53:13.190Z,16.10
2022-09-23T13:55:41.334Z,16.30
2022-09-23T13:58:17.425Z,16.40
2022-09-23T14:00:45.240Z,16.60
2022-09-23T14:03:21.260Z,16.70
2022-09-23T14:05:50.128Z,16.70
2022-09-23T14:08:17.162Z,16.80
2022-09-23T14:10:46.935Z,16.70
2022-09-23T14:13:29.820Z,16.70
2022-09-23T14:16:00.394Z,16.80
2022-09-23T14:18:35.417Z,16.70
2022-09-23T14:21:02.413Z,16.70
2022-09-23T14:23:29.371Z,16.70
2022-09-23T14:25:58.913Z,16.70
2022-09-23T14:28:27.643Z,16.60
2022-09-23T14:30:58.216Z,16.60
2022-09-23T14:33:32.450Z,16.50
2022-09-23T14:36:09.065Z,16.50
2022-09-23T14:38:51.468Z,16.50
2022-09-23T14:41:24.246Z,16.50
2022-09-23T14:43:59.712Z,16.60
2022-09-23T14:46:29.841Z,16.50
2022-09-23T14:49:07.106Z,16.50
2022-09-23T14:51:53.160Z,16.50
2022-09-23T14:54:34.569Z,16.50
2022-09-23T14:57:30.060Z,16.40
2022-09-23T15:00:18.858Z,16.50
2022-09-23T15:02:57.343Z,16.50
2022-09-23T15:05:58.149Z,16.40
2022-09-23T15:08:29.369Z,16.30
2022-09-23T15:10:57.369Z,16.30
2022-09-23T15:13:29.495Z,16.30
2022-09-23T15:15:57.924Z,16.30
2022-09-23T15:18:35.713Z,16.20
2022-09-23T15:21:10.504Z,16.10
2022-09-23T15:23:44.876Z,16.10
2022-09-23T15:26:20.936Z,16.00
2022-09-23T15:28:48.945Z,16.10
2022-09-23T15:31:18.320Z,15.90
2022-09-23T15:33:47.590Z,15.90
2022-09-23T15:36:20.441Z,15.90
2022-09-23T15:38:48.159Z,15.80
2022-09-23T15:41:17.322Z,15.70
2022-09-23T15:43:44.695Z,15.70
2022-09-23T15:46:19.833Z,15.70
2022-09-23T15:48:58.457Z,15.60
2022-09-23T15:51:27.535Z,15.70
2022-09-23T15:53:55.328Z,15.70
2022-09-23T15:56:23.489Z,15.70
2022-09-23T15:58:51.078Z,15.60
2022-09-23T16:01:28.415Z,15.60
2022-09-23T16:03:56.168Z,15.50
2022-09-23T16:06:24.436Z,15.50
2022-09-23T16:08:52.325Z,15.40
2022-09-23T16:11:31.830Z,15.30
2022-09-23T16:14:00.590Z,15.30
2022-09-23T16:16:31.110Z,15.20
2022-09-23T16:18:58.031Z,15.20
2022-09-23T16:21:26.654Z,15.10
2022-09-23T16:23:54.548Z,15.10
2022-09-23T16:26:48.155Z,15.00
2022-09-23T16:29:15.964Z,14.90
2022-09-23T16:31:43.133Z,14.80
2022-09-23T16:34:10.043Z,14.80
2022-09-23T16:36:43.269Z,14.70
2022-09-23T16:39:12.603Z,14.60
2022-09-23T16:41:40.168Z,14.50
2022-09-23T16:44:09.385Z,14.50
2022-09-23T16:46:36.683Z,14.50
2022-09-23T16:49:04.569Z,14.40
2022-09-23T16:51:42.149Z,14.40
2022-09-23T16:54:13.997Z,14.30
2022-09-23T16:56:46.633Z,14.30
2022-09-23T16:59:15.949Z,14.20
2022-09-23T17:02:03.200Z,14.20
2022-09-23T17:04:32.107Z,14.10
2022-09-23T17:06:59.718Z,14.10
2022-09-23T17:09:29.167Z,14.00
2022-09-23T17:12:15.629Z,13.90
2022-09-23T17:14:44.710Z,13.90
2022-09-23T17:17:11.767Z,13.90
2022-09-23T17:19:41.629Z,13.80
2022-09-23T17:22:09.393Z,13.80
2022-09-23T17:24:36.275Z,13.80
2022-09-23T17:27:03.589Z,13.70
2022-09-23T17:29:30.631Z,13.70
2022-09-23T17:31:58.171Z,13.70
2022-09-23T17:34:25.309Z,13.60
2022-09-23T17:36:52.144Z,13.60
2022-09-23T17:39:19.055Z,13.50
2022-09-23T17:41:45.904Z,13.50
2022-09-23T17:44:13.099Z,13.40
2022-09-23T17:46:39.952Z,13.40
2022-09-23T17:49:07.943Z,13.40
2022-09-23T17:51:34.948Z,13.40
2022-09-23T17:54:01.794Z,13.40
2022-09-23T17:56:31.552Z,13.40
2022-09-23T17:59:01.757Z,13.40
2022-09-23T18:01:29.562Z,13.30
2022-09-23T18:03:58.393Z,13.50
2022-09-23T18:06:27.847Z,13.30
2022-09-23T18:08:57.780Z,13.30
2022-09-23T18:11:26.994Z,13.40
2022-09-23T18:13:56.494Z,13.20
2022-09-23T18:16:26.327Z,13.10
2022-09-23T18:19:01.669Z,13.20
2022-09-23T18:21:31.955Z,13.10
2022-09-23T18:24:21.663Z,13.10
2022-09-23T18:26:49.737Z,13.10
2022-09-23T18:29:16.750Z,13.00
2022-09-23T18:31:45.086Z,13.00
2022-09-23T18:34:19.058Z,13.00
2022-09-23T18:36:46.559Z,13.00
2022-09-23T18:39:13.664Z,13.00
2022-09-23T18:41:41.245Z,12.90
2022-09-23T18:44:08.342Z,13.00
2022-09-23T18:46:35.543Z,12.90
2022-09-23T18:49:20.958Z,12.90
2022-09-23T18:51:58.024Z,12.90
2022-09-23T18:54:27.868Z,12.90
2022-09-23T18:56:55.275Z,12.80
2022-09-23T18:59:25.985Z,12.80
2022-09-23T19:01:55.532Z,12.80
2022-09-23T19:04:24.323Z,12.70
2022-09-23T19:06:51.185Z,12.70
2022-09-23T19:09:18.538Z,12.60
2022-09-23T19:11:46.252Z,12.70
2022-09-23T19:14:13.568Z,12.60
2022-09-23T19:16:41.332Z,12.60
2022-09-23T19:19:08.802Z,12.60
2022-09-23T19:21:36.151Z,12.60
2022-09-23T19:24:07.990Z,12.50
2022-09-23T19:26:38.104Z,12.60
2022-09-23T19:29:08.409Z,12.60
2022-09-23T19:31:41.583Z,12.70
2022-09-23T19:34:13.490Z,12.50
2022-09-23T19:36:42.948Z,12.50
2022-09-23T19:39:24.410Z,12.50
2022-09-23T19:41:52.550Z,12.50
2022-09-23T19:44:20.265Z,12.50
2022-09-23T19:46:53.421Z,12.50
2022-09-23T19:49:23.954Z,12.40
2022-09-23T19:51:51.040Z,12.40
2022-09-23T19:54:20.938Z,12.40
2022-09-23T19:56:49.670Z,12.40
2022-09-23T19:59:19.002Z,12.40
2022-09-23T20:01:47.734Z,12.40
2022-09-23T20:04:15.717Z,12.30
2022-09-23T20:06:42.891Z,12.30
2022-09-23T20:09:10.006Z,12.20
2022-09-23T20:11:37.151Z,12.30
2022-09-23T20:14:06.243Z,12.50
2022-09-23T20:16:35.836Z,12.30
2022-09-23T20:19:04.409Z,12.30
2022-09-23T20:21:31.786Z,12.30
2022-09-23T20:23:58.985Z,12.30
2022-09-23T20:26:47.360Z,12.20
2022-09-23T20:29:14.274Z,12.20
2022-09-23T20:31:41.583Z,12.20
2022-09-23T20:34:10.606Z,12.20
2022-09-23T20:36:40.952Z,12.20
2022-09-23T20:39:09.634Z,12.20
2022-09-23T20:41:38.374Z,12.20
2022-09-23T20:44:12.426Z,12.20
2022-09-23T20:46:45.302Z,12.20
2022-09-23T20:49:14.889Z,12.20
2022-09-23T20:51:41.756Z,12.20
2022-09-23T20:54:08.826Z,12.20
2022-09-23T20:56:35.773Z,12.10
2022-09-23T20:59:04.870Z,12.20
2022-09-23T21:01:36.566Z,12.20
2022-09-23T21:04:05.006Z,12.10
2022-09-23T21:06:34.030Z,12.20
2022-09-23T21:09:00.988Z,12.10
2022-09-23T21:11:28.137Z,12.10
2022-09-23T21:13:55.049Z,12.00
2022-09-23T21:16:23.017Z,12.10
2022-09-23T21:18:51.606Z,11.90
2022-09-23T21:21:20.059Z,12.00
2022-09-23T21:23:47.521Z,12.20
2022-09-23T21:26:17.807Z,12.00
2022-09-23T21:28:46.658Z,12.00
2022-09-23T21:31:22.874Z,12.00
2022-09-23T21:33:59.170Z,12.20
2022-09-23T21:36:30.776Z,11.90
2022-09-23T21:38:58.127Z,12.00
2022-09-23T21:41:25.572Z,12.00
2022-09-23T21:43:52.496Z,12.00
2022-09-23T21:46:20.877Z,12.00
2022-09-23T21:48:53.678Z,11.90
2022-09-23T21:51:26.784Z,12.00
2022-09-23T21:53:55.546Z,12.00
2022-09-23T21:56:23.626Z,11.90
2022-09-23T21:58:52.216Z,12.00
2022-09-23T22:01:30.844Z,11.90
2022-09-23T22:04:03.928Z,11.90
2022-09-23T22:06:31.886Z,11.80
2022-09-23T22:09:00.571Z,11.80
2022-09-23T22:11:48.705Z,11.90
2022-09-23T22:14:17.681Z,11.90
2022-09-23T22:16:44.812Z,11.90
2022-09-23T22:19:13.650Z,11.80
2022-09-23T22:21:42.577Z,11.80
2022-09-23T22:24:10.681Z,11.90
2022-09-23T22:26:43.326Z,11.90
2022-09-23T22:29:33.613Z,11.80
2022-09-23T22:32:20.364Z,11.90
2022-09-23T22:34:50.633Z,11.90
2022-09-23T22:37:21.515Z,11.90
2022-09-23T22:39:48.392Z,11.80
2022-09-23T22:42:15.242Z,11.80
2022-09-23T22:44:42.274Z,11.80
2022-09-23T22:47:09.920Z,11.80
2022-09-23T22:49:37.147Z,11.80
2022-09-23T22:52:09.130Z,11.80
2022-09-23T22:54:36.359Z,11.90
2022-09-23T22:57:07.994Z,11.80
2022-09-23T22:59:35.912Z,11.80
2022-09-23T23:02:03.028Z,11.70
2022-09-23T23:04:30.289Z,11.80
2022-09-23T23:06:58.907Z,11.70
2022-09-23T23:09:26.116Z,11.70
2022-09-23T23:11:53.259Z,11.70
2022-09-23T23:14:20.297Z,11.80
2022-09-23T23:16:47.452Z,11.70
2022-09-23T23:19:17.378Z,11.80
2022-09-23T23:21:45.515Z,11.70
2022-09-23T23:24:18.656Z,11.60
2022-09-23T23:26:45.979Z,11.70
2022-09-23T23:29:14.877Z,11.70
2022-09-23T23:31:42.345Z,11.70
2022-09-23T23:34:13.272Z,11.60
2022-09-23T23:36:41.508Z,11.70
2022-09-23T23:39:08.318Z,11.60
2022-09-23T23:41:35.675Z,11.80
2022-09-23T23:44:02.790Z,11.60
2022-09-23T23:46:31.408Z,11.70
2022-09-23T23:48:59.281Z,11.70
2022-09-23T23:51:27.697Z,11.70
2022-09-23T23:53:55.262Z,11.80
2022-09-23T23:56:26.400Z,11.70
2022-09-23T23:58:57.476Z,11.70
